sensor_id;sensor_type;location;lat;lon;timestamp;P1;durP1;ratioP1;P2;durP2;ratioP2
13795;SDS011;40911;51.552;9.874;2022-12-07T00:09:47;20.58;;;14.05;;
13795;SDS011;40911;51.552;9.874;2022-12-07T00:12:09;17.88;;;12.95;;
13795;SDS011;40911;51.552;9.874;2022-12-07T00:14:30;20.42;;;12.77;;
13795;SDS011;40911;51.552;9.874;2022-12-07T00:19:14;18.17;;;11.40;;
13795;SDS011;40911;51.552;9.874;2022-12-07T00:21:36;19.95;;;13.23;;
13795;SDS011;40911;51.552;9.874;2022-12-07T00:23:57;18.55;;;12.63;;
13795;SDS011;40911;51.552;9.874;2022-12-07T00:26:22;20.42;;;13.23;;
13795;SDS011;40911;51.552;9.874;2022-12-07T00:28:45;21.95;;;13.45;;
13795;SDS011;40911;51.552;9.874;2022-12-07T00:31:09;19.67;;;12.95;;
13795;SDS011;40911;51.552;9.874;2022-12-07T00:33:32;19.15;;;13.25;;
13795;SDS011;40911;51.552;9.874;2022-12-07T00:35:55;20.58;;;12.98;;
13795;SDS011;40911;51.552;9.874;2022-12-07T00:38:17;18.65;;;12.90;;
13795;SDS011;40911;51.552;9.874;2022-12-07T00:43:01;19.98;;;12.70;;
13795;SDS011;40911;51.552;9.874;2022-12-07T00:45:23;22.05;;;12.50;;
13795;SDS011;40911;51.552;9.874;2022-12-07T00:47:45;19.45;;;12.32;;
13795;SDS011;40911;51.552;9.874;2022-12-07T00:52:28;16.00;;;10.43;;
13795;SDS011;40911;51.552;9.874;2022-12-07T00:54:50;14.77;;;10.38;;
13795;SDS011;40911;51.552;9.874;2022-12-07T00:59:35;12.93;;;9.15;;
13795;SDS011;40911;51.552;9.874;2022-12-07T01:01:57;12.77;;;9.82;;
13795;SDS011;40911;51.552;9.874;2022-12-07T01:04:18;12.75;;;9.30;;
13795;SDS011;40911;51.552;9.874;2022-12-07T01:06:40;17.92;;;10.55;;
13795;SDS011;40911;51.552;9.874;2022-12-07T01:11:25;14.95;;;9.65;;
13795;SDS011;40911;51.552;9.874;2022-12-07T01:13:49;14.35;;;10.25;;
13795;SDS011;40911;51.552;9.874;2022-12-07T01:16:14;14.10;;;10.35;;
13795;SDS011;40911;51.552;9.874;2022-12-07T01:18:36;15.52;;;11.10;;
13795;SDS011;40911;51.552;9.874;2022-12-07T01:20:59;16.27;;;10.27;;
13795;SDS011;40911;51.552;9.874;2022-12-07T01:23:22;17.38;;;11.30;;
13795;SDS011;40911;51.552;9.874;2022-12-07T01:25:43;17.83;;;11.55;;
13795;SDS011;40911;51.552;9.874;2022-12-07T01:28:05;17.38;;;12.15;;
13795;SDS011;40911;51.552;9.874;2022-12-07T01:30:27;17.30;;;11.75;;
13795;SDS011;40911;51.552;9.874;2022-12-07T01:32:50;14.40;;;11.15;;
13795;SDS011;40911;51.552;9.874;2022-12-07T01:35:12;16.33;;;11.70;;
13795;SDS011;40911;51.552;9.874;2022-12-07T01:37:34;15.57;;;11.27;;
13795;SDS011;40911;51.552;9.874;2022-12-07T01:39:57;15.60;;;11.43;;
13795;SDS011;40911;51.552;9.874;2022-12-07T01:42:18;18.05;;;11.20;;
13795;SDS011;40911;51.552;9.874;2022-12-07T01:47:35;15.88;;;11.30;;
13795;SDS011;40911;51.552;9.874;2022-12-07T01:49:59;16.25;;;11.32;;
13795;SDS011;40911;51.552;9.874;2022-12-07T01:52:21;13.85;;;10.38;;
13795;SDS011;40911;51.552;9.874;2022-12-07T01:54:46;15.95;;;10.90;;
13795;SDS011;40911;51.552;9.874;2022-12-07T01:57:10;16.35;;;11.05;;
13795;SDS011;40911;51.552;9.874;2022-12-07T01:59:34;15.02;;;10.63;;
13795;SDS011;40911;51.552;9.874;2022-12-07T02:01:57;15.95;;;11.80;;
13795;SDS011;40911;51.552;9.874;2022-12-07T02:06:41;14.15;;;10.25;;
13795;SDS011;40911;51.552;9.874;2022-12-07T02:09:04;18.08;;;11.45;;
13795;SDS011;40911;51.552;9.874;2022-12-07T02:11:26;16.60;;;10.95;;
13795;SDS011;40911;51.552;9.874;2022-12-07T02:13:48;16.23;;;11.80;;
13795;SDS011;40911;51.552;9.874;2022-12-07T02:16:14;18.15;;;11.88;;
13795;SDS011;40911;51.552;9.874;2022-12-07T02:18:48;20.10;;;12.15;;
13795;SDS011;40911;51.552;9.874;2022-12-07T02:21:23;17.13;;;11.60;;
13795;SDS011;40911;51.552;9.874;2022-12-07T02:27:07;17.52;;;12.15;;
13795;SDS011;40911;51.552;9.874;2022-12-07T02:29:43;19.73;;;12.90;;
13795;SDS011;40911;51.552;9.874;2022-12-07T02:32:12;16.95;;;12.35;;
13795;SDS011;40911;51.552;9.874;2022-12-07T02:34:39;18.52;;;12.27;;
13795;SDS011;40911;51.552;9.874;2022-12-07T02:37:09;18.40;;;12.25;;
13795;SDS011;40911;51.552;9.874;2022-12-07T02:39:37;18.95;;;12.25;;
13795;SDS011;40911;51.552;9.874;2022-12-07T02:42:07;19.25;;;13.35;;
13795;SDS011;40911;51.552;9.874;2022-12-07T02:44:35;19.20;;;12.25;;
13795;SDS011;40911;51.552;9.874;2022-12-07T02:46:59;18.88;;;12.77;;
13795;SDS011;40911;51.552;9.874;2022-12-07T02:49:24;19.48;;;12.57;;
13795;SDS011;40911;51.552;9.874;2022-12-07T02:51:49;20.80;;;13.63;;
13795;SDS011;40911;51.552;9.874;2022-12-07T02:54:10;19.02;;;13.07;;
13795;SDS011;40911;51.552;9.874;2022-12-07T02:56:35;20.90;;;12.95;;
13795;SDS011;40911;51.552;9.874;2022-12-07T02:59:07;20.97;;;13.30;;
13795;SDS011;40911;51.552;9.874;2022-12-07T03:01:39;19.42;;;12.45;;
13795;SDS011;40911;51.552;9.874;2022-12-07T03:04:15;20.38;;;12.85;;
13795;SDS011;40911;51.552;9.874;2022-12-07T03:06:47;20.98;;;13.13;;
13795;SDS011;40911;51.552;9.874;2022-12-07T03:09:15;25.77;;;14.02;;
13795;SDS011;40911;51.552;9.874;2022-12-07T03:11:44;25.75;;;15.13;;
13795;SDS011;40911;51.552;9.874;2022-12-07T03:14:13;29.70;;;15.77;;
13795;SDS011;40911;51.552;9.874;2022-12-07T03:16:39;26.25;;;14.68;;
13795;SDS011;40911;51.552;9.874;2022-12-07T03:19:06;27.05;;;15.77;;
13795;SDS011;40911;51.552;9.874;2022-12-07T03:21:33;24.52;;;14.45;;
13795;SDS011;40911;51.552;9.874;2022-12-07T03:23:58;26.35;;;15.07;;
13795;SDS011;40911;51.552;9.874;2022-12-07T03:26:30;25.67;;;15.15;;
13795;SDS011;40911;51.552;9.874;2022-12-07T03:28:58;25.27;;;15.00;;
13795;SDS011;40911;51.552;9.874;2022-12-07T03:31:25;26.23;;;15.48;;
13795;SDS011;40911;51.552;9.874;2022-12-07T03:33:52;28.40;;;15.25;;
13795;SDS011;40911;51.552;9.874;2022-12-07T03:36:19;23.88;;;14.35;;
13795;SDS011;40911;51.552;9.874;2022-12-07T03:38:46;22.50;;;13.80;;
13795;SDS011;40911;51.552;9.874;2022-12-07T03:41:12;21.63;;;13.32;;
13795;SDS011;40911;51.552;9.874;2022-12-07T03:43:39;23.85;;;13.82;;
13795;SDS011;40911;51.552;9.874;2022-12-07T03:46:05;22.02;;;13.75;;
13795;SDS011;40911;51.552;9.874;2022-12-07T03:48:37;24.63;;;14.38;;
13795;SDS011;40911;51.552;9.874;2022-12-07T03:51:06;24.67;;;14.38;;
13795;SDS011;40911;51.552;9.874;2022-12-07T03:53:36;26.23;;;14.95;;
13795;SDS011;40911;51.552;9.874;2022-12-07T03:56:05;24.77;;;15.10;;
13795;SDS011;40911;51.552;9.874;2022-12-07T03:58:28;26.48;;;14.73;;
13795;SDS011;40911;51.552;9.874;2022-12-07T04:00:51;25.08;;;14.90;;
13795;SDS011;40911;51.552;9.874;2022-12-07T04:03:13;25.52;;;15.45;;
13795;SDS011;40911;51.552;9.874;2022-12-07T04:07:57;26.80;;;15.38;;
13795;SDS011;40911;51.552;9.874;2022-12-07T04:10:18;29.48;;;16.40;;
13795;SDS011;40911;51.552;9.874;2022-12-07T04:12:42;30.98;;;17.08;;
13795;SDS011;40911;51.552;9.874;2022-12-07T04:15:04;33.80;;;17.40;;
13795;SDS011;40911;51.552;9.874;2022-12-07T04:17:26;27.55;;;16.52;;
13795;SDS011;40911;51.552;9.874;2022-12-07T04:22:10;27.02;;;15.57;;
13795;SDS011;40911;51.552;9.874;2022-12-07T04:24:31;28.75;;;16.00;;
13795;SDS011;40911;51.552;9.874;2022-12-07T04:29:16;28.38;;;16.88;;
13795;SDS011;40911;51.552;9.874;2022-12-07T04:31:39;28.33;;;16.55;;
13795;SDS011;40911;51.552;9.874;2022-12-07T04:36:22;27.58;;;17.10;;
13795;SDS011;40911;51.552;9.874;2022-12-07T04:41:06;28.45;;;15.13;;
13795;SDS011;40911;51.552;9.874;2022-12-07T04:43:28;29.05;;;15.85;;
13795;SDS011;40911;51.552;9.874;2022-12-07T04:45:51;27.58;;;16.05;;
13795;SDS011;40911;51.552;9.874;2022-12-07T04:48:14;29.80;;;16.77;;
13795;SDS011;40911;51.552;9.874;2022-12-07T04:50:35;29.42;;;16.52;;
13795;SDS011;40911;51.552;9.874;2022-12-07T04:52:58;31.42;;;16.88;;
13795;SDS011;40911;51.552;9.874;2022-12-07T04:55:20;29.33;;;17.13;;
13795;SDS011;40911;51.552;9.874;2022-12-07T04:57:42;35.10;;;16.42;;
13795;SDS011;40911;51.552;9.874;2022-12-07T05:00:04;26.85;;;15.57;;
13795;SDS011;40911;51.552;9.874;2022-12-07T05:02:28;30.02;;;15.00;;
13795;SDS011;40911;51.552;9.874;2022-12-07T05:04:50;31.27;;;15.15;;
13795;SDS011;40911;51.552;9.874;2022-12-07T05:07:11;28.70;;;15.60;;
13795;SDS011;40911;51.552;9.874;2022-12-07T05:09:33;29.75;;;14.93;;
13795;SDS011;40911;51.552;9.874;2022-12-07T05:11:55;24.80;;;15.38;;
13795;SDS011;40911;51.552;9.874;2022-12-07T05:14:17;26.85;;;15.57;;
13795;SDS011;40911;51.552;9.874;2022-12-07T05:16:41;29.05;;;15.30;;
13795;SDS011;40911;51.552;9.874;2022-12-07T05:19:05;23.85;;;14.60;;
13795;SDS011;40911;51.552;9.874;2022-12-07T05:21:27;24.95;;;14.27;;
13795;SDS011;40911;51.552;9.874;2022-12-07T05:26:11;27.55;;;13.63;;
13795;SDS011;40911;51.552;9.874;2022-12-07T05:30:54;31.60;;;13.13;;
13795;SDS011;40911;51.552;9.874;2022-12-07T05:35:39;19.02;;;12.02;;
13795;SDS011;40911;51.552;9.874;2022-12-07T05:38:00;20.80;;;13.10;;
13795;SDS011;40911;51.552;9.874;2022-12-07T05:40:22;19.20;;;11.88;;
13795;SDS011;40911;51.552;9.874;2022-12-07T05:45:06;21.60;;;12.68;;
13795;SDS011;40911;51.552;9.874;2022-12-07T05:47:28;22.73;;;12.77;;
13795;SDS011;40911;51.552;9.874;2022-12-07T05:49:50;19.50;;;13.02;;
13795;SDS011;40911;51.552;9.874;2022-12-07T05:54:35;20.40;;;12.88;;
13795;SDS011;40911;51.552;9.874;2022-12-07T05:56:56;18.30;;;12.77;;
13795;SDS011;40911;51.552;9.874;2022-12-07T06:01:45;22.02;;;12.45;;
13795;SDS011;40911;51.552;9.874;2022-12-07T06:04:06;17.02;;;11.80;;
13795;SDS011;40911;51.552;9.874;2022-12-07T06:06:28;19.45;;;12.98;;
13795;SDS011;40911;51.552;9.874;2022-12-07T06:08:52;23.00;;;12.88;;
13795;SDS011;40911;51.552;9.874;2022-12-07T06:11:13;18.83;;;12.93;;
13795;SDS011;40911;51.552;9.874;2022-12-07T06:13:52;20.40;;;11.50;;
13795;SDS011;40911;51.552;9.874;2022-12-07T06:16:14;18.42;;;10.77;;
13795;SDS011;40911;51.552;9.874;2022-12-07T06:20:57;19.08;;;12.02;;
13795;SDS011;40911;51.552;9.874;2022-12-07T06:23:19;18.63;;;11.52;;
13795;SDS011;40911;51.552;9.874;2022-12-07T06:25:46;18.60;;;10.60;;
13795;SDS011;40911;51.552;9.874;2022-12-07T06:28:07;22.13;;;11.55;;
13795;SDS011;40911;51.552;9.874;2022-12-07T06:30:29;16.48;;;11.65;;
13795;SDS011;40911;51.552;9.874;2022-12-07T06:32:51;20.67;;;10.88;;
13795;SDS011;40911;51.552;9.874;2022-12-07T06:35:13;16.63;;;10.82;;
13795;SDS011;40911;51.552;9.874;2022-12-07T06:37:34;19.08;;;11.80;;
13795;SDS011;40911;51.552;9.874;2022-12-07T06:39:56;17.10;;;11.15;;
13795;SDS011;40911;51.552;9.874;2022-12-07T06:42:19;17.67;;;10.02;;
13795;SDS011;40911;51.552;9.874;2022-12-07T06:44:41;19.58;;;10.57;;
13795;SDS011;40911;51.552;9.874;2022-12-07T06:47:03;16.52;;;11.05;;
13795;SDS011;40911;51.552;9.874;2022-12-07T06:49:25;18.85;;;10.85;;
13795;SDS011;40911;51.552;9.874;2022-12-07T06:51:47;17.33;;;11.25;;
13795;SDS011;40911;51.552;9.874;2022-12-07T06:54:09;20.13;;;11.63;;
13795;SDS011;40911;51.552;9.874;2022-12-07T06:56:31;17.35;;;11.50;;
13795;SDS011;40911;51.552;9.874;2022-12-07T06:58:54;15.57;;;10.52;;
13795;SDS011;40911;51.552;9.874;2022-12-07T07:01:17;16.73;;;10.27;;
13795;SDS011;40911;51.552;9.874;2022-12-07T07:03:39;16.17;;;10.68;;
13795;SDS011;40911;51.552;9.874;2022-12-07T07:06:01;24.70;;;11.95;;
13795;SDS011;40911;51.552;9.874;2022-12-07T07:10:44;16.88;;;9.75;;
13795;SDS011;40911;51.552;9.874;2022-12-07T07:13:06;17.42;;;10.10;;
13795;SDS011;40911;51.552;9.874;2022-12-07T07:15:30;12.88;;;9.85;;
13795;SDS011;40911;51.552;9.874;2022-12-07T07:17:52;14.27;;;10.07;;
13795;SDS011;40911;51.552;9.874;2022-12-07T07:20:14;16.90;;;9.85;;
13795;SDS011;40911;51.552;9.874;2022-12-07T07:22:36;15.07;;;10.43;;
13795;SDS011;40911;51.552;9.874;2022-12-07T07:27:19;18.80;;;10.00;;
13795;SDS011;40911;51.552;9.874;2022-12-07T07:29:41;16.30;;;9.55;;
13795;SDS011;40911;51.552;9.874;2022-12-07T07:32:05;13.93;;;9.73;;
13795;SDS011;40911;51.552;9.874;2022-12-07T07:34:27;15.57;;;9.75;;
13795;SDS011;40911;51.552;9.874;2022-12-07T07:39:10;16.48;;;10.27;;
13795;SDS011;40911;51.552;9.874;2022-12-07T07:41:32;17.88;;;10.07;;
13795;SDS011;40911;51.552;9.874;2022-12-07T07:46:16;19.98;;;10.80;;
13795;SDS011;40911;51.552;9.874;2022-12-07T07:48:39;15.65;;;10.43;;
13795;SDS011;40911;51.552;9.874;2022-12-07T07:51:00;15.32;;;10.30;;
13795;SDS011;40911;51.552;9.874;2022-12-07T07:53:26;14.60;;;11.20;;
13795;SDS011;40911;51.552;9.874;2022-12-07T07:55:51;22.23;;;9.93;;
13795;SDS011;40911;51.552;9.874;2022-12-07T07:58:14;19.58;;;10.25;;
13795;SDS011;40911;51.552;9.874;2022-12-07T08:00:36;14.80;;;10.23;;
13795;SDS011;40911;51.552;9.874;2022-12-07T08:02:58;18.13;;;10.18;;
13795;SDS011;40911;51.552;9.874;2022-12-07T08:05:21;17.67;;;9.43;;
13795;SDS011;40911;51.552;9.874;2022-12-07T08:07:42;17.08;;;9.20;;
13795;SDS011;40911;51.552;9.874;2022-12-07T08:14:48;17.08;;;9.05;;
13795;SDS011;40911;51.552;9.874;2022-12-07T08:17:10;14.20;;;8.85;;
13795;SDS011;40911;51.552;9.874;2022-12-07T08:19:32;14.73;;;8.90;;
13795;SDS011;40911;51.552;9.874;2022-12-07T08:21:56;15.55;;;8.45;;
13795;SDS011;40911;51.552;9.874;2022-12-07T08:24:18;11.23;;;8.70;;
13795;SDS011;40911;51.552;9.874;2022-12-07T08:26:40;12.50;;;7.78;;
13795;SDS011;40911;51.552;9.874;2022-12-07T08:29:02;10.48;;;7.10;;
13795;SDS011;40911;51.552;9.874;2022-12-07T08:31:24;12.00;;;7.28;;
13795;SDS011;40911;51.552;9.874;2022-12-07T08:33:47;13.30;;;8.10;;
13795;SDS011;40911;51.552;9.874;2022-12-07T08:36:10;12.50;;;7.72;;
13795;SDS011;40911;51.552;9.874;2022-12-07T08:38:35;12.55;;;8.20;;
13795;SDS011;40911;51.552;9.874;2022-12-07T08:41:00;12.43;;;8.27;;
13795;SDS011;40911;51.552;9.874;2022-12-07T08:43:22;12.23;;;8.10;;
13795;SDS011;40911;51.552;9.874;2022-12-07T08:45:44;12.35;;;8.02;;
13795;SDS011;40911;51.552;9.874;2022-12-07T08:50:30;9.70;;;6.35;;
13795;SDS011;40911;51.552;9.874;2022-12-07T08:52:54;13.07;;;7.00;;
13795;SDS011;40911;51.552;9.874;2022-12-07T08:55:19;13.55;;;7.15;;
13795;SDS011;40911;51.552;9.874;2022-12-07T08:57:41;11.60;;;7.63;;
13795;SDS011;40911;51.552;9.874;2022-12-07T09:00:03;11.77;;;8.07;;
13795;SDS011;40911;51.552;9.874;2022-12-07T09:02:25;18.27;;;8.38;;
13795;SDS011;40911;51.552;9.874;2022-12-07T09:04:47;12.77;;;8.38;;
13795;SDS011;40911;51.552;9.874;2022-12-07T09:09:31;14.85;;;8.55;;
13795;SDS011;40911;51.552;9.874;2022-12-07T09:11:54;16.02;;;8.65;;
13795;SDS011;40911;51.552;9.874;2022-12-07T09:14:16;12.35;;;8.20;;
13795;SDS011;40911;51.552;9.874;2022-12-07T09:16:38;14.88;;;8.50;;
13795;SDS011;40911;51.552;9.874;2022-12-07T09:21:22;13.15;;;8.45;;
13795;SDS011;40911;51.552;9.874;2022-12-07T09:23:44;13.98;;;8.65;;
13795;SDS011;40911;51.552;9.874;2022-12-07T09:26:05;15.30;;;8.75;;
13795;SDS011;40911;51.552;9.874;2022-12-07T09:30:51;17.58;;;9.13;;
13795;SDS011;40911;51.552;9.874;2022-12-07T09:33:12;12.25;;;8.32;;
13795;SDS011;40911;51.552;9.874;2022-12-07T09:35:35;14.80;;;9.15;;
13795;SDS011;40911;51.552;9.874;2022-12-07T09:40:19;15.73;;;8.15;;
13795;SDS011;40911;51.552;9.874;2022-12-07T09:42:42;9.63;;;7.05;;
13795;SDS011;40911;51.552;9.874;2022-12-07T09:45:11;16.08;;;8.15;;
13795;SDS011;40911;51.552;9.874;2022-12-07T09:47:35;14.48;;;7.88;;
13795;SDS011;40911;51.552;9.874;2022-12-07T09:49:58;11.52;;;7.22;;
13795;SDS011;40911;51.552;9.874;2022-12-07T09:52:25;13.13;;;8.07;;
13795;SDS011;40911;51.552;9.874;2022-12-07T09:54:49;12.15;;;7.90;;
13795;SDS011;40911;51.552;9.874;2022-12-07T09:57:12;13.57;;;7.47;;
13795;SDS011;40911;51.552;9.874;2022-12-07T09:59:34;11.52;;;6.90;;
13795;SDS011;40911;51.552;9.874;2022-12-07T10:04:38;8.43;;;6.80;;
13795;SDS011;40911;51.552;9.874;2022-12-07T10:07:00;11.43;;;6.60;;
13795;SDS011;40911;51.552;9.874;2022-12-07T10:09:22;12.77;;;7.40;;
13795;SDS011;40911;51.552;9.874;2022-12-07T10:12:04;11.32;;;7.18;;
13795;SDS011;40911;51.552;9.874;2022-12-07T10:14:30;8.48;;;6.38;;
13795;SDS011;40911;51.552;9.874;2022-12-07T10:16:53;10.63;;;6.70;;
13795;SDS011;40911;51.552;9.874;2022-12-07T10:21:46;11.77;;;6.35;;
13795;SDS011;40911;51.552;9.874;2022-12-07T10:24:21;8.18;;;6.03;;
13795;SDS011;40911;51.552;9.874;2022-12-07T10:26:47;8.95;;;6.55;;
13795;SDS011;40911;51.552;9.874;2022-12-07T10:29:14;11.93;;;6.80;;
13795;SDS011;40911;51.552;9.874;2022-12-07T10:31:39;9.70;;;6.75;;
13795;SDS011;40911;51.552;9.874;2022-12-07T10:34:01;9.20;;;6.20;;
13795;SDS011;40911;51.552;9.874;2022-12-07T10:38:47;8.70;;;6.70;;
13795;SDS011;40911;51.552;9.874;2022-12-07T10:41:11;8.60;;;6.35;;
13795;SDS011;40911;51.552;9.874;2022-12-07T10:43:33;10.15;;;6.90;;
13795;SDS011;40911;51.552;9.874;2022-12-07T10:46:04;7.50;;;5.90;;
13795;SDS011;40911;51.552;9.874;2022-12-07T10:48:37;7.88;;;5.57;;
13795;SDS011;40911;51.552;9.874;2022-12-07T10:51:12;8.10;;;6.13;;
13795;SDS011;40911;51.552;9.874;2022-12-07T10:53:51;7.85;;;5.95;;
13795;SDS011;40911;51.552;9.874;2022-12-07T10:56:41;11.40;;;5.90;;
13795;SDS011;40911;51.552;9.874;2022-12-07T10:59:27;10.88;;;6.07;;
13795;SDS011;40911;51.552;9.874;2022-12-07T11:02:09;9.07;;;5.60;;
13795;SDS011;40911;51.552;9.874;2022-12-07T11:04:43;11.27;;;5.47;;
13795;SDS011;40911;51.552;9.874;2022-12-07T11:07:16;9.52;;;5.95;;
13795;SDS011;40911;51.552;9.874;2022-12-07T11:12:29;9.48;;;6.25;;
13795;SDS011;40911;51.552;9.874;2022-12-07T11:15:04;12.38;;;5.63;;
13795;SDS011;40911;51.552;9.874;2022-12-07T11:17:36;9.57;;;6.40;;
13795;SDS011;40911;51.552;9.874;2022-12-07T11:20:12;8.70;;;5.78;;
13795;SDS011;40911;51.552;9.874;2022-12-07T11:22:47;10.70;;;5.85;;
13795;SDS011;40911;51.552;9.874;2022-12-07T11:25:17;8.93;;;5.97;;
13795;SDS011;40911;51.552;9.874;2022-12-07T11:27:44;12.10;;;6.07;;
13795;SDS011;40911;51.552;9.874;2022-12-07T11:30:13;9.98;;;6.30;;
13795;SDS011;40911;51.552;9.874;2022-12-07T11:32:45;11.93;;;5.97;;
13795;SDS011;40911;51.552;9.874;2022-12-07T11:35:16;9.82;;;6.90;;
13795;SDS011;40911;51.552;9.874;2022-12-07T11:37:45;10.05;;;5.95;;
13795;SDS011;40911;51.552;9.874;2022-12-07T11:40:13;9.80;;;5.50;;
13795;SDS011;40911;51.552;9.874;2022-12-07T11:42:41;7.35;;;5.43;;
13795;SDS011;40911;51.552;9.874;2022-12-07T11:45:10;9.52;;;5.88;;
13795;SDS011;40911;51.552;9.874;2022-12-07T11:47:38;11.13;;;6.20;;
13795;SDS011;40911;51.552;9.874;2022-12-07T11:50:10;8.48;;;6.03;;
13795;SDS011;40911;51.552;9.874;2022-12-07T11:52:43;11.23;;;5.85;;
13795;SDS011;40911;51.552;9.874;2022-12-07T11:55:14;8.30;;;6.05;;
13795;SDS011;40911;51.552;9.874;2022-12-07T12:00:12;9.88;;;6.07;;
13795;SDS011;40911;51.552;9.874;2022-12-07T12:02:37;7.50;;;5.63;;
13795;SDS011;40911;51.552;9.874;2022-12-07T12:05:06;8.88;;;5.68;;
13795;SDS011;40911;51.552;9.874;2022-12-07T12:07:36;11.15;;;5.60;;
13795;SDS011;40911;51.552;9.874;2022-12-07T12:09:59;10.00;;;5.10;;
13795;SDS011;40911;51.552;9.874;2022-12-07T12:12:33;7.57;;;5.70;;
13795;SDS011;40911;51.552;9.874;2022-12-07T12:15:17;9.13;;;5.03;;
13795;SDS011;40911;51.552;9.874;2022-12-07T12:18:00;9.48;;;5.00;;
13795;SDS011;40911;51.552;9.874;2022-12-07T12:20:54;6.55;;;5.20;;
13795;SDS011;40911;51.552;9.874;2022-12-07T12:23:19;6.32;;;4.85;;
13795;SDS011;40911;51.552;9.874;2022-12-07T12:25:44;7.63;;;5.00;;
13795;SDS011;40911;51.552;9.874;2022-12-07T12:28:16;7.55;;;4.72;;
13795;SDS011;40911;51.552;9.874;2022-12-07T12:30:43;10.70;;;5.25;;
13795;SDS011;40911;51.552;9.874;2022-12-07T12:33:06;9.93;;;4.90;;
13795;SDS011;40911;51.552;9.874;2022-12-07T12:35:35;7.18;;;4.95;;
13795;SDS011;40911;51.552;9.874;2022-12-07T12:40:53;7.65;;;5.20;;
13795;SDS011;40911;51.552;9.874;2022-12-07T12:49:14;8.80;;;5.05;;
13795;SDS011;40911;51.552;9.874;2022-12-07T12:51:56;8.80;;;5.28;;
13795;SDS011;40911;51.552;9.874;2022-12-07T12:54:20;8.13;;;4.63;;
13795;SDS011;40911;51.552;9.874;2022-12-07T12:56:45;10.20;;;5.18;;
13795;SDS011;40911;51.552;9.874;2022-12-07T12:59:23;8.13;;;5.22;;
13795;SDS011;40911;51.552;9.874;2022-12-07T13:01:47;9.60;;;5.22;;
13795;SDS011;40911;51.552;9.874;2022-12-07T13:07:11;8.13;;;5.38;;
13795;SDS011;40911;51.552;9.874;2022-12-07T13:09:34;8.73;;;5.32;;
13795;SDS011;40911;51.552;9.874;2022-12-07T13:11:59;9.98;;;5.72;;
13795;SDS011;40911;51.552;9.874;2022-12-07T13:20:40;10.68;;;6.45;;
13795;SDS011;40911;51.552;9.874;2022-12-07T13:23:15;7.75;;;5.25;;
13795;SDS011;40911;51.552;9.874;2022-12-07T13:25:43;8.75;;;6.07;;
13795;SDS011;40911;51.552;9.874;2022-12-07T13:28:14;9.93;;;6.40;;
13795;SDS011;40911;51.552;9.874;2022-12-07T13:30:42;10.07;;;5.47;;
13795;SDS011;40911;51.552;9.874;2022-12-07T13:33:20;7.00;;;5.05;;
13795;SDS011;40911;51.552;9.874;2022-12-07T13:38:05;8.07;;;5.68;;
13795;SDS011;40911;51.552;9.874;2022-12-07T13:40:36;12.27;;;5.65;;
13795;SDS011;40911;51.552;9.874;2022-12-07T13:45:21;13.35;;;6.63;;
13795;SDS011;40911;51.552;9.874;2022-12-07T13:48:09;7.53;;;6.35;;
13795;SDS011;40911;51.552;9.874;2022-12-07T13:50:37;7.35;;;5.38;;
13795;SDS011;40911;51.552;9.874;2022-12-07T13:57:42;11.00;;;5.57;;
13795;SDS011;40911;51.552;9.874;2022-12-07T14:00:13;15.18;;;7.10;;
13795;SDS011;40911;51.552;9.874;2022-12-07T14:02:53;6.70;;;5.35;;
13795;SDS011;40911;51.552;9.874;2022-12-07T14:05:23;8.80;;;6.00;;
13795;SDS011;40911;51.552;9.874;2022-12-07T14:07:49;10.93;;;5.13;;
13795;SDS011;40911;51.552;9.874;2022-12-07T14:10:25;7.38;;;4.80;;
13795;SDS011;40911;51.552;9.874;2022-12-07T14:12:48;7.88;;;4.97;;
13795;SDS011;40911;51.552;9.874;2022-12-07T14:15:15;12.90;;;5.32;;
13795;SDS011;40911;51.552;9.874;2022-12-07T14:17:49;9.15;;;5.28;;
13795;SDS011;40911;51.552;9.874;2022-12-07T14:25:17;6.32;;;4.88;;
13795;SDS011;40911;51.552;9.874;2022-12-07T14:27:50;8.48;;;5.57;;
13795;SDS011;40911;51.552;9.874;2022-12-07T14:30:16;6.25;;;5.57;;
13795;SDS011;40911;51.552;9.874;2022-12-07T14:32:38;13.30;;;6.00;;
13795;SDS011;40911;51.552;9.874;2022-12-07T14:35:01;10.05;;;5.43;;
13795;SDS011;40911;51.552;9.874;2022-12-07T14:37:26;6.90;;;5.53;;
13795;SDS011;40911;51.552;9.874;2022-12-07T14:39:49;13.48;;;6.88;;
13795;SDS011;40911;51.552;9.874;2022-12-07T14:44:32;7.07;;;4.88;;
13795;SDS011;40911;51.552;9.874;2022-12-07T14:46:54;7.88;;;5.07;;
13795;SDS011;40911;51.552;9.874;2022-12-07T14:51:37;7.85;;;5.20;;
13795;SDS011;40911;51.552;9.874;2022-12-07T14:54:02;6.88;;;5.25;;
13795;SDS011;40911;51.552;9.874;2022-12-07T14:56:26;8.90;;;5.25;;
13795;SDS011;40911;51.552;9.874;2022-12-07T15:01:09;7.00;;;5.13;;
13795;SDS011;40911;51.552;9.874;2022-12-07T15:03:31;7.10;;;5.00;;
13795;SDS011;40911;51.552;9.874;2022-12-07T15:05:54;12.27;;;5.60;;
13795;SDS011;40911;51.552;9.874;2022-12-07T15:08:16;11.63;;;5.68;;
13795;SDS011;40911;51.552;9.874;2022-12-07T15:10:39;13.20;;;5.80;;
13795;SDS011;40911;51.552;9.874;2022-12-07T15:13:02;10.63;;;5.90;;
13795;SDS011;40911;51.552;9.874;2022-12-07T15:15:38;8.80;;;5.93;;
13795;SDS011;40911;51.552;9.874;2022-12-07T15:20:21;15.57;;;6.10;;
13795;SDS011;40911;51.552;9.874;2022-12-07T15:22:43;8.25;;;4.75;;
13795;SDS011;40911;51.552;9.874;2022-12-07T15:25:05;8.48;;;5.15;;
13795;SDS011;40911;51.552;9.874;2022-12-07T15:27:28;13.82;;;5.38;;
13795;SDS011;40911;51.552;9.874;2022-12-07T15:29:51;8.98;;;5.20;;
13795;SDS011;40911;51.552;9.874;2022-12-07T15:32:13;8.68;;;5.10;;
13795;SDS011;40911;51.552;9.874;2022-12-07T15:36:57;19.90;;;9.40;;
13795;SDS011;40911;51.552;9.874;2022-12-07T15:41:40;17.35;;;7.60;;
13795;SDS011;40911;51.552;9.874;2022-12-07T15:46:42;12.32;;;7.18;;
13795;SDS011;40911;51.552;9.874;2022-12-07T15:51:27;11.40;;;6.45;;
13795;SDS011;40911;51.552;9.874;2022-12-07T15:53:49;16.30;;;7.60;;
13795;SDS011;40911;51.552;9.874;2022-12-07T15:56:11;12.68;;;7.38;;
13795;SDS011;40911;51.552;9.874;2022-12-07T16:00:56;14.23;;;9.55;;
13795;SDS011;40911;51.552;9.874;2022-12-07T16:03:18;10.52;;;6.50;;
13795;SDS011;40911;51.552;9.874;2022-12-07T16:08:01;10.07;;;6.30;;
13795;SDS011;40911;51.552;9.874;2022-12-07T16:10:23;7.75;;;6.60;;
13795;SDS011;40911;51.552;9.874;2022-12-07T16:12:45;8.60;;;6.65;;
13795;SDS011;40911;51.552;9.874;2022-12-07T16:15:07;10.55;;;7.10;;
13795;SDS011;40911;51.552;9.874;2022-12-07T16:17:31;9.80;;;6.55;;
13795;SDS011;40911;51.552;9.874;2022-12-07T16:19:52;9.55;;;6.80;;
13795;SDS011;40911;51.552;9.874;2022-12-07T16:22:14;15.88;;;6.80;;
13795;SDS011;40911;51.552;9.874;2022-12-07T16:26:57;11.55;;;6.40;;
13795;SDS011;40911;51.552;9.874;2022-12-07T16:29:20;11.20;;;7.82;;
13795;SDS011;40911;51.552;9.874;2022-12-07T16:31:42;13.43;;;7.40;;
13795;SDS011;40911;51.552;9.874;2022-12-07T16:36:27;9.00;;;6.80;;
13795;SDS011;40911;51.552;9.874;2022-12-07T16:41:10;12.48;;;7.30;;
13795;SDS011;40911;51.552;9.874;2022-12-07T16:43:32;11.68;;;7.75;;
13795;SDS011;40911;51.552;9.874;2022-12-07T16:45:55;13.25;;;7.22;;
13795;SDS011;40911;51.552;9.874;2022-12-07T16:48:16;7.30;;;6.60;;
13795;SDS011;40911;51.552;9.874;2022-12-07T16:50:40;15.75;;;7.03;;
13795;SDS011;40911;51.552;9.874;2022-12-07T16:53:03;8.05;;;6.60;;
13795;SDS011;40911;51.552;9.874;2022-12-07T16:57:46;15.38;;;6.43;;
13795;SDS011;40911;51.552;9.874;2022-12-07T17:00:08;17.60;;;5.78;;